Time;durP1;ratioP1;P1;durP2;ratioP2;P2;SDS_P1;SDS_P2;PMS_P1;PMS_P2;Temp;Humidity;BMP_temperature;BMP_pressure;BME280_temperature;BME280_humidity;BME280_pressure;Samples;Min_cycle;Max_cycle;Signal;HPM_P1;HPM_P2
2022/10/21 10:21:12;;;;;;;;;;;15.00;99.90;;;;;;2614258;39;20571;-72
2022/10/21 10:23:45;;;;;;;;;;;15.90;99.90;;;;;;2620008;39;20391;-71
2022/10/21 10:26:23;;;;;;;;;;;15.90;99.90;;;;;;2621945;47;19978;-71
2022/10/21 10:28:55;;;;;;;;;;;15.90;99.90;;;;;;2620965;47;19946;-72
2022/10/21 10:31:29;;;;;;;;;;;15.90;99.90;;;;;;2620058;54;19955;-71
2022/10/21 10:34:02;;;;;;;;;;;15.90;99.90;;;;;;2616260;54;19986;-71
2022/10/21 10:36:36;;;;;;;;;;;15.90;99.90;;;;;;2613462;54;19978;-71
2022/10/21 10:39:08;;;;;;;;;;;16.00;99.90;;;;;;2615991;54;20518;-73
2022/10/21 10:41:39;;;;;;;;;;;16.00;99.90;;;;;;2615006;47;20090;-70
2022/10/21 10:44:17;;;;;;;;;;;16.00;99.90;;;;;;2615202;54;19997;-74
2022/10/21 10:46:47;;;;;;;;;;;16.00;99.90;;;;;;2614054;54;20532;-74
2022/10/21 10:49:38;;;;;;;;;;;16.10;99.90;;;;;;2617923;54;19946;-69
2022/10/21 10:52:26;;;;;;;;;;;16.00;99.90;;;;;;2612482;51;19966;-70
2022/10/21 10:55:35;;;;;;;;;;;16.00;99.90;;;;;;2616368;39;20359;-68
2022/10/21 10:58:51;;;;;;;;;;;16.00;99.90;;;;;;2609455;39;20545;-69
2022/10/21 11:01:42;;;;;;;;;;;16.00;99.90;;;;;;2613698;39;20340;-67
2022/10/21 11:04:37;;;;;;;;;;;16.60;99.90;;;;;;2610101;47;19947;-67
2022/10/21 11:07:19;;;;;;;;;;;16.10;99.90;;;;;;2615969;54;19969;-69
2022/10/21 11:09:54;;;;;;;;;;;16.10;99.90;;;;;;2618099;54;19946;-67
2022/10/21 11:12:39;;;;;;;;;;;16.10;99.90;;;;;;2619329;54;19947;-70
2022/10/21 11:15:27;;;;;;;;;;;16.10;99.90;;;;;;2617106;54;19957;-70
2022/10/21 11:18:01;;;;;;;;;;;16.10;99.90;;;;;;2615789;54;19946;-69
2022/10/21 11:20:58;;;;;;;;;;;16.10;99.90;;;;;;2615269;31;20502;-70
2022/10/21 11:23:41;;;;;;;;;;;16.10;99.90;;;;;;2614766;47;20700;-72
2022/10/21 11:26:18;;;;;;;;;;;16.10;99.90;;;;;;2614251;54;20895;-71
2022/10/21 11:28:54;;;;;;;;;;;16.20;99.90;;;;;;2616518;52;20493;-70
2022/10/21 11:31:36;;;;;;;;;;;16.20;99.90;;;;;;2613223;47;19950;-74
2022/10/21 11:34:33;;;;;;;;;;;16.20;99.90;;;;;;2617065;39;20251;-67
2022/10/21 11:37:08;;;;;;;;;;;16.60;99.90;;;;;;2615232;54;20001;-76
2022/10/21 11:39:50;;;;;;;;;;;16.20;99.90;;;;;;2616335;54;19990;-67
2022/10/21 11:42:25;;;;;;;;;;;16.30;99.90;;;;;;2618335;47;20001;-68
2022/10/21 11:45:04;;;;;;;;;;;16.30;99.90;;;;;;2620469;50;19947;-67
2022/10/21 11:47:38;;;;;;;;;;;16.40;99.90;;;;;;2625122;54;19946;-66
2022/10/21 11:50:13;;;;;;;;;;;16.40;99.90;;;;;;2620481;47;20419;-68
2022/10/21 11:52:47;;;;;;;;;;;16.50;99.90;;;;;;2619467;54;19950;-68
2022/10/21 11:55:40;;;;;;;;;;;16.50;99.90;;;;;;2624555;54;19950;-71
2022/10/21 11:58:15;;;;;;;;;;;16.60;99.90;;;;;;2623924;50;19974;-68
2022/10/21 12:00:49;;;;;;;;;;;16.60;99.90;;;;;;2624350;54;19939;-72
2022/10/21 12:03:35;;;;;;;;;;;16.60;99.90;;;;;;2619350;47;20056;-70
2022/10/21 12:06:11;;;;;;;;;;;16.70;99.90;;;;;;2615798;54;19954;-66
2022/10/21 12:09:16;;;;;;;;;;;16.70;99.90;;;;;;2608509;54;19969;-72
2022/10/21 12:12:41;;;;;;;;;;;16.90;99.90;;;;;;2617023;54;19946;-67
2022/10/21 12:15:46;;;;;;;;;;;16.90;99.90;;;;;;2610620;54;19957;-67
2022/10/21 12:18:39;;;;;;;;;;;16.90;99.90;;;;;;2616018;47;20567;-68
2022/10/21 12:21:29;;;;;;;;;;;17.00;99.90;;;;;;2613550;54;19978;-67
2022/10/21 12:24:35;;;;;;;;;;;16.90;99.90;;;;;;2613519;54;20038;-67
2022/10/21 12:27:22;;;;;;;;;;;17.00;99.90;;;;;;2613834;39;20354;-67
2022/10/21 12:29:59;;;;;;;;;;;17.00;99.90;;;;;;2614508;47;19958;-66
2022/10/21 12:32:34;;;;;;;;;;;17.20;99.90;;;;;;2612687;54;20443;-66
2022/10/21 12:35:05;;;;;;;;;;;17.40;99.90;;;;;;2612570;54;19958;-65
2022/10/21 12:37:48;;;;;;;;;;;17.50;99.90;;;;;;2614160;54;19950;-68
2022/10/21 12:40:44;;;;;;;;;;;17.60;99.90;;;;;;2615066;54;19997;-66
2022/10/21 12:43:30;;;;;;;;;;;17.60;99.90;;;;;;2614003;54;19954;-68
2022/10/21 12:46:13;;;;;;;;;;;17.70;99.90;;;;;;2611990;47;19950;-68
2022/10/21 12:48:47;;;;;;;;;;;17.90;99.90;;;;;;2616249;54;19990;-67
2022/10/21 12:51:23;;;;;;;;;;;18.00;99.90;;;;;;2615240;46;19950;-67
2022/10/21 12:53:57;;;;;;;;;;;18.00;99.90;;;;;;2612916;47;19946;-66
2022/10/21 12:56:29;;;;;;;;;;;18.10;99.90;;;;;;2615224;47;19954;-66
2022/10/21 12:59:03;;;;;;;;;;;18.10;99.90;;;;;;2612698;54;19986;-67
2022/10/21 13:01:41;;;;;;;;;;;18.10;99.90;;;;;;2613656;47;19946;-68
2022/10/21 13:04:31;;;;;;;;;;;18.20;99.90;;;;;;2615604;39;20405;-65
2022/10/21 13:07:02;;;;;;;;;;;18.20;99.90;;;;;;2612783;54;20450;-68
2022/10/21 13:09:33;;;;;;;;;;;18.20;99.90;;;;;;2614287;39;20660;-66
2022/10/21 13:12:14;;;;;;;;;;;18.20;99.90;;;;;;2612810;54;20005;-66
2022/10/21 13:14:48;;;;;;;;;;;18.20;99.90;;;;;;2613991;54;20017;-68
2022/10/21 13:17:29;;;;;;;;;;;18.20;99.90;;;;;;2622281;39;20370;-64
2022/10/21 13:20:18;;;;;;;;;;;18.20;99.90;;;;;;2622940;51;20391;-66
2022/10/21 13:22:48;;;;;;;;;;;18.20;99.90;;;;;;2613742;54;19973;-66
2022/10/21 13:25:22;;;;;;;;;;;18.20;99.90;;;;;;2614698;54;19954;-68
2022/10/21 13:27:53;;;;;;;;;;;18.10;99.90;;;;;;2614158;54;19958;-68
2022/10/21 13:30:32;;;;;;;;;;;18.10;99.90;;;;;;2614114;31;20506;-66
2022/10/21 13:33:03;;;;;;;;;;;18.10;99.90;;;;;;2612175;54;19977;-66
2022/10/21 13:35:35;;;;;;;;;;;18.00;99.90;;;;;;2612528;54;19947;-68
2022/10/21 13:38:06;;;;;;;;;;;18.00;99.90;;;;;;2613558;47;20049;-66
2022/10/21 13:40:41;;;;;;;;;;;17.90;99.90;;;;;;2612681;47;19951;-70
2022/10/21 13:43:15;;;;;;;;;;;17.90;99.90;;;;;;2612641;54;20021;-69
2022/10/21 13:45:49;;;;;;;;;;;17.90;99.90;;;;;;2613584;47;19950;-66
2022/10/21 13:48:20;;;;;;;;;;;17.90;99.90;;;;;;2612001;47;19953;-68
2022/10/21 13:50:50;;;;;;;;;;;17.80;99.90;;;;;;2614218;47;20001;-67
2022/10/21 13:53:23;;;;;;;;;;;17.80;99.90;;;;;;2613907;54;19954;-66
2022/10/21 13:56:02;;;;;;;;;;;17.80;99.90;;;;;;2615158;54;20573;-69
2022/10/21 13:58:38;;;;;;;;;;;17.80;99.90;;;;;;2614356;54;19954;-66
2022/10/21 14:01:15;;;;;;;;;;;17.80;99.90;;;;;;2614914;46;19974;-69
2022/10/21 14:03:45;;;;;;;;;;;17.80;99.90;;;;;;2614784;54;19951;-67
2022/10/21 14:06:19;;;;;;;;;;;17.70;99.90;;;;;;2613908;54;19950;-64
2022/10/21 14:08:49;;;;;;;;;;;17.80;99.90;;;;;;2615622;47;20005;-67
2022/10/21 14:11:26;;;;;;;;;;;17.80;99.90;;;;;;2610778;54;19947;-68
2022/10/21 14:14:04;;;;;;;;;;;17.80;99.90;;;;;;2612662;47;19946;-71
2022/10/21 14:16:37;;;;;;;;;;;17.80;99.90;;;;;;2613360;47;19974;-68
2022/10/21 14:19:11;;;;;;;;;;;17.80;99.90;;;;;;2614468;47;20464;-69
2022/10/21 14:21:51;;;;;;;;;;;17.80;99.90;;;;;;2613303;47;19954;-74
2022/10/21 14:27:58;;;;;;;;;;;;;;;;;;;;;
2022/10/21 14:30:53;;;;;;;;;;;17.80;99.90;;;;;;2618000;46;19959;-73
2022/10/21 14:33:28;;;;;;;;;;;17.70;99.90;;;;;;2619952;54;19958;-70
2022/10/21 14:36:11;;;;;;;;;;;17.70;99.90;;;;;;2619667;54;19954;-72
2022/10/21 14:38:53;;;;;;;;;;;17.70;99.90;;;;;;2619316;46;19957;-71
2022/10/21 14:41:25;;;;;;;;;;;17.70;99.90;;;;;;2618532;47;20458;-73
2022/10/21 14:43:59;;;;;;;;;;;17.70;99.90;;;;;;2616104;47;19950;-70
2022/10/21 14:46:50;;;;;;;;;;;17.70;99.90;;;;;;2616333;46;19958;-71
2022/10/21 14:49:33;;;;;;;;;;;17.70;99.90;;;;;;2618472;54;19950;-70
2022/10/21 14:52:08;;;;;;;;;;;17.70;99.90;;;;;;2622135;54;19946;-71
2022/10/21 14:54:55;;;;;;;;;;;17.70;99.90;;;;;;2620965;54;19951;-72
2022/10/21 14:57:51;;;;;;;;;;;17.60;99.90;;;;;;2616924;54;19954;-69
2022/10/21 15:00:25;;;;;;;;;;;17.60;99.90;;;;;;2616918;54;19972;-71
2022/10/21 15:02:59;;;;;;;;;;;17.60;99.90;;;;;;2615273;47;19958;-72
2022/10/21 15:05:33;;;;;;;;;;;17.70;99.90;;;;;;2615905;54;21502;-70
2022/10/21 15:08:15;;;;;;;;;;;17.60;99.90;;;;;;2617458;54;19946;-73
2022/10/21 15:10:45;;;;;;;;;;;17.60;99.90;;;;;;2616084;54;19997;-70
2022/10/21 15:13:18;;;;;;;;;;;17.60;99.90;;;;;;2617325;54;19974;-70
2022/10/21 15:15:49;;;;;;;;;;;17.60;99.90;;;;;;2615915;54;19974;-70
2022/10/21 15:18:23;;;;;;;;;;;17.60;99.90;;;;;;2619867;54;20443;-72
2022/10/21 15:20:58;;;;;;;;;;;17.60;99.90;;;;;;2618144;54;19954;-71
2022/10/21 15:23:30;;;;;;;;;;;17.50;99.90;;;;;;2619914;54;19954;-70
2022/10/21 15:28:48;;;;;;;;;;;17.40;99.90;;;;;;2619447;54;19990;-74
2022/10/21 15:31:18;;;;;;;;;;;17.60;99.90;;;;;;2618943;48;19993;-73
2022/10/21 15:33:49;;;;;;;;;;;17.40;99.90;;;;;;2619319;47;19947;-73
2022/10/21 15:36:22;;;;;;;;;;;17.50;99.90;;;;;;2618070;47;20021;-73
2022/10/21 15:38:54;;;;;;;;;;;17.50;99.90;;;;;;2618665;39;20433;-73
2022/10/21 15:41:25;;;;;;;;;;;17.50;99.90;;;;;;2618538;54;19986;-73
2022/10/21 15:43:58;;;;;;;;;;;17.50;99.90;;;;;;2618114;54;19958;-73
2022/10/21 15:46:28;;;;;;;;;;;17.50;99.90;;;;;;2618299;54;19938;-73
2022/10/21 15:48:58;;;;;;;;;;;17.50;99.90;;;;;;2618886;54;19973;-73
2022/10/21 15:51:30;;;;;;;;;;;17.50;99.90;;;;;;2618711;47;19973;-72
2022/10/21 15:54:00;;;;;;;;;;;17.50;99.90;;;;;;2619547;47;19946;-73
2022/10/21 15:56:29;;;;;;;;;;;17.50;99.90;;;;;;2622730;54;19962;-72
2022/10/21 15:58:59;;;;;;;;;;;17.50;99.90;;;;;;2621836;47;19973;-71
2022/10/21 16:01:28;;;;;;;;;;;17.50;99.90;;;;;;2619306;51;19985;-73
2022/10/21 16:03:58;;;;;;;;;;;17.50;99.90;;;;;;2620451;54;19947;-74
2022/10/21 16:06:30;;;;;;;;;;;17.50;99.90;;;;;;2620267;54;19979;-72
2022/10/21 16:09:00;;;;;;;;;;;17.50;99.90;;;;;;2619333;47;19950;-71
2022/10/21 16:11:30;;;;;;;;;;;17.50;99.90;;;;;;2617102;51;19953;-72
2022/10/21 16:14:13;;;;;;;;;;;17.40;99.90;;;;;;2615718;54;20452;-71
2022/10/21 16:16:44;;;;;;;;;;;17.40;99.90;;;;;;2619358;54;20476;-75
2022/10/21 16:19:14;;;;;;;;;;;17.40;99.90;;;;;;2618198;50;19947;-74
2022/10/21 16:21:46;;;;;;;;;;;17.40;99.90;;;;;;2619254;47;19986;-72
2022/10/21 16:24:15;;;;;;;;;;;17.40;99.90;;;;;;2618915;54;19959;-72
2022/10/21 16:26:46;;;;;;;;;;;17.40;99.90;;;;;;2617665;54;19999;-73
2022/10/21 16:29:18;;;;;;;;;;;17.30;99.90;;;;;;2615536;47;19951;-70
2022/10/21 16:31:47;;;;;;;;;;;17.40;99.90;;;;;;2616082;47;20001;-70
2022/10/21 16:34:17;;;;;;;;;;;17.30;99.90;;;;;;2619771;47;19954;-72
2022/10/21 16:36:49;;;;;;;;;;;17.30;99.90;;;;;;2620293;54;19990;-74
2022/10/21 16:39:20;;;;;;;;;;;17.40;99.90;;;;;;2618466;54;19974;-73
2022/10/21 16:41:50;;;;;;;;;;;17.30;99.90;;;;;;2617285;51;20038;-72
2022/10/21 16:44:20;;;;;;;;;;;17.30;99.90;;;;;;2617665;54;19951;-70
2022/10/21 16:46:50;;;;;;;;;;;17.30;99.90;;;;;;2617000;54;20516;-72
2022/10/21 16:49:22;;;;;;;;;;;17.40;99.90;;;;;;2616657;54;19982;-75
2022/10/21 16:51:56;;;;;;;;;;;17.30;99.90;;;;;;2616590;47;19993;-72
2022/10/21 16:54:25;;;;;;;;;;;17.30;99.90;;;;;;2617306;47;19954;-73
2022/10/21 16:56:55;;;;;;;;;;;17.30;99.90;;;;;;2616690;47;19985;-72
2022/10/21 16:59:25;;;;;;;;;;;17.30;99.90;;;;;;2621370;47;19946;-72
